sensor_id;sensor_type;location;lat;lon;timestamp;temperature;humidity
5176;DHT22;2607;50.934;6.934;2022-11-20T00:00:57;4.40;99.90
5176;DHT22;2607;50.934;6.934;2022-11-20T00:03:23;4.40;99.90
5176;DHT22;2607;50.934;6.934;2022-11-20T00:05:48;4.40;99.90
5176;DHT22;2607;50.934;6.934;2022-11-20T00:08:14;4.40;99.90
5176;DHT22;2607;50.934;6.934;2022-11-20T00:10:40;4.40;99.90
5176;DHT22;2607;50.934;6.934;2022-11-20T00:13:06;4.40;99.90
5176;DHT22;2607;50.934;6.934;2022-11-20T00:15:33;4.40;99.90
5176;DHT22;2607;50.934;6.934;2022-11-20T00:17:58;4.40;99.90
5176;DHT22;2607;50.934;6.934;2022-11-20T00:20:24;4.40;99.90
5176;DHT22;2607;50.934;6.934;2022-11-20T00:22:50;4.40;99.90
5176;DHT22;2607;50.934;6.934;2022-11-20T00:25:16;4.40;99.90
5176;DHT22;2607;50.934;6.934;2022-11-20T00:27:42;4.40;99.90
5176;DHT22;2607;50.934;6.934;2022-11-20T00:30:08;4.40;99.90
5176;DHT22;2607;50.934;6.934;2022-11-20T00:32:34;4.30;99.90
5176;DHT22;2607;50.934;6.934;2022-11-20T00:34:59;4.30;99.90
5176;DHT22;2607;50.934;6.934;2022-11-20T00:37:25;4.30;99.90
5176;DHT22;2607;50.934;6.934;2022-11-20T00:39:51;4.30;99.90
5176;DHT22;2607;50.934;6.934;2022-11-20T00:42:16;4.30;99.90
5176;DHT22;2607;50.934;6.934;2022-11-20T00:44:42;4.30;99.90
5176;DHT22;2607;50.934;6.934;2022-11-20T00:47:07;4.30;99.90
5176;DHT22;2607;50.934;6.934;2022-11-20T00:49:33;4.30;99.90
5176;DHT22;2607;50.934;6.934;2022-11-20T00:51:58;4.30;99.90
5176;DHT22;2607;50.934;6.934;2022-11-20T00:54:24;4.30;99.90
5176;DHT22;2607;50.934;6.934;2022-11-20T00:56:49;4.30;99.90
5176;DHT22;2607;50.934;6.934;2022-11-20T00:59:15;4.30;99.90
5176;DHT22;2607;50.934;6.934;2022-11-20T01:01:40;4.30;99.90
5176;DHT22;2607;50.934;6.934;2022-11-20T01:04:06;4.30;99.90
5176;DHT22;2607;50.934;6.934;2022-11-20T01:06:37;4.20;99.90
5176;DHT22;2607;50.934;6.934;2022-11-20T01:09:07;4.20;99.90
5176;DHT22;2607;50.934;6.934;2022-11-20T01:11:37;4.20;99.90
5176;DHT22;2607;50.934;6.934;2022-11-20T01:14:05;4.20;99.90
5176;DHT22;2607;50.934;6.934;2022-11-20T01:16:34;4.20;99.90
5176;DHT22;2607;50.934;6.934;2022-11-20T01:19:03;4.20;99.90
5176;DHT22;2607;50.934;6.934;2022-11-20T01:21:31;4.20;99.90
5176;DHT22;2607;50.934;6.934;2022-11-20T01:23:57;4.20;99.90
5176;DHT22;2607;50.934;6.934;2022-11-20T01:26:25;4.20;99.90
5176;DHT22;2607;50.934;6.934;2022-11-20T01:28:52;4.20;99.90
5176;DHT22;2607;50.934;6.934;2022-11-20T01:31:26;4.20;99.90
5176;DHT22;2607;50.934;6.934;2022-11-20T01:33:55;4.20;99.90
5176;DHT22;2607;50.934;6.934;2022-11-20T01:36:22;4.10;99.90
5176;DHT22;2607;50.934;6.934;2022-11-20T01:38:51;4.10;99.90
5176;DHT22;2607;50.934;6.934;2022-11-20T01:41:17;4.20;99.90
5176;DHT22;2607;50.934;6.934;2022-11-20T01:44:03;4.10;99.90
5176;DHT22;2607;50.934;6.934;2022-11-20T01:46:31;4.10;99.90
5176;DHT22;2607;50.934;6.934;2022-11-20T01:49:08;4.10;99.90
5176;DHT22;2607;50.934;6.934;2022-11-20T01:51:41;4.20;99.90
5176;DHT22;2607;50.934;6.934;2022-11-20T01:54:12;4.20;99.90
5176;DHT22;2607;50.934;6.934;2022-11-20T01:56:42;4.20;99.90
5176;DHT22;2607;50.934;6.934;2022-11-20T01:59:10;4.20;99.90
5176;DHT22;2607;50.934;6.934;2022-11-20T02:01:36;4.20;99.90
5176;DHT22;2607;50.934;6.934;2022-11-20T02:04:04;4.20;99.90
5176;DHT22;2607;50.934;6.934;2022-11-20T02:06:35;4.20;99.90
5176;DHT22;2607;50.934;6.934;2022-11-20T02:09:01;4.20;99.90
5176;DHT22;2607;50.934;6.934;2022-11-20T02:11:26;4.20;99.90
5176;DHT22;2607;50.934;6.934;2022-11-20T02:13:53;4.20;99.90
5176;DHT22;2607;50.934;6.934;2022-11-20T02:16:26;4.20;99.90
5176;DHT22;2607;50.934;6.934;2022-11-20T02:18:55;4.20;99.90
5176;DHT22;2607;50.934;6.934;2022-11-20T02:21:33;4.20;99.90
5176;DHT22;2607;50.934;6.934;2022-11-20T02:26:31;4.20;99.90
5176;DHT22;2607;50.934;6.934;2022-11-20T02:28:59;4.20;99.90
5176;DHT22;2607;50.934;6.934;2022-11-20T02:31:26;4.20;99.90
5176;DHT22;2607;50.934;6.934;2022-11-20T02:33:57;4.20;99.90
5176;DHT22;2607;50.934;6.934;2022-11-20T02:36:24;4.20;99.90
5176;DHT22;2607;50.934;6.934;2022-11-20T02:38:51;4.20;99.90
5176;DHT22;2607;50.934;6.934;2022-11-20T02:41:17;4.20;99.90
5176;DHT22;2607;50.934;6.934;2022-11-20T02:43:42;4.20;99.90
5176;DHT22;2607;50.934;6.934;2022-11-20T02:46:08;4.20;99.90
5176;DHT22;2607;50.934;6.934;2022-11-20T02:48:34;4.20;99.90
5176;DHT22;2607;50.934;6.934;2022-11-20T02:51:00;4.20;99.90
5176;DHT22;2607;50.934;6.934;2022-11-20T02:53:25;4.10;99.90
5176;DHT22;2607;50.934;6.934;2022-11-20T02:55:51;4.10;99.90
5176;DHT22;2607;50.934;6.934;2022-11-20T02:58:16;4.10;99.90
5176;DHT22;2607;50.934;6.934;2022-11-20T03:00:42;4.10;99.90
5176;DHT22;2607;50.934;6.934;2022-11-20T03:03:08;4.10;99.90
5176;DHT22;2607;50.934;6.934;2022-11-20T03:05:33;4.10;99.90
5176;DHT22;2607;50.934;6.934;2022-11-20T03:07:59;4.10;99.90
5176;DHT22;2607;50.934;6.934;2022-11-20T03:10:24;4.10;99.90
5176;DHT22;2607;50.934;6.934;2022-11-20T03:12:56;4.10;99.90
5176;DHT22;2607;50.934;6.934;2022-11-20T03:15:23;4.10;99.90
5176;DHT22;2607;50.934;6.934;2022-11-20T03:17:48;4.10;99.90
5176;DHT22;2607;50.934;6.934;2022-11-20T03:20:14;4.10;99.90
5176;DHT22;2607;50.934;6.934;2022-11-20T03:22:40;4.10;99.90
5176;DHT22;2607;50.934;6.934;2022-11-20T03:25:05;4.10;99.90
5176;DHT22;2607;50.934;6.934;2022-11-20T03:27:33;4.10;99.90
5176;DHT22;2607;50.934;6.934;2022-11-20T03:29:58;4.10;99.90
5176;DHT22;2607;50.934;6.934;2022-11-20T03:32:24;4.10;99.90
5176;DHT22;2607;50.934;6.934;2022-11-20T03:34:49;4.10;99.90
5176;DHT22;2607;50.934;6.934;2022-11-20T03:37:15;4.10;99.90
5176;DHT22;2607;50.934;6.934;2022-11-20T03:39:40;4.00;99.90
5176;DHT22;2607;50.934;6.934;2022-11-20T03:42:06;4.00;99.90
5176;DHT22;2607;50.934;6.934;2022-11-20T03:44:51;4.00;99.90
5176;DHT22;2607;50.934;6.934;2022-11-20T03:47:17;4.00;99.90
5176;DHT22;2607;50.934;6.934;2022-11-20T03:49:43;4.00;99.90
5176;DHT22;2607;50.934;6.934;2022-11-20T03:52:08;4.00;99.90
5176;DHT22;2607;50.934;6.934;2022-11-20T03:54:33;4.10;99.90
5176;DHT22;2607;50.934;6.934;2022-11-20T03:56:59;4.00;99.90
5176;DHT22;2607;50.934;6.934;2022-11-20T03:59:24;4.00;99.90
5176;DHT22;2607;50.934;6.934;2022-11-20T04:01:50;4.00;99.90
5176;DHT22;2607;50.934;6.934;2022-11-20T04:04:16;4.00;99.90
5176;DHT22;2607;50.934;6.934;2022-11-20T04:06:41;4.10;99.90
5176;DHT22;2607;50.934;6.934;2022-11-20T04:09:07;4.00;99.90
5176;DHT22;2607;50.934;6.934;2022-11-20T04:11:34;4.00;99.90
5176;DHT22;2607;50.934;6.934;2022-11-20T04:14:02;4.00;99.90
5176;DHT22;2607;50.934;6.934;2022-11-20T04:16:33;4.00;99.90
5176;DHT22;2607;50.934;6.934;2022-11-20T04:19:01;4.00;99.90
5176;DHT22;2607;50.934;6.934;2022-11-20T04:21:28;3.90;99.90
5176;DHT22;2607;50.934;6.934;2022-11-20T04:23:53;3.90;99.90
5176;DHT22;2607;50.934;6.934;2022-11-20T04:26:20;3.90;99.90
5176;DHT22;2607;50.934;6.934;2022-11-20T04:28:46;3.90;99.90
5176;DHT22;2607;50.934;6.934;2022-11-20T04:31:17;3.90;99.90
5176;DHT22;2607;50.934;6.934;2022-11-20T04:33:44;3.80;99.90
5176;DHT22;2607;50.934;6.934;2022-11-20T04:36:17;3.80;99.90
5176;DHT22;2607;50.934;6.934;2022-11-20T04:38:44;3.80;99.90
5176;DHT22;2607;50.934;6.934;2022-11-20T04:41:16;3.80;99.90
5176;DHT22;2607;50.934;6.934;2022-11-20T04:43:41;3.80;99.90
5176;DHT22;2607;50.934;6.934;2022-11-20T04:46:11;3.80;99.90
5176;DHT22;2607;50.934;6.934;2022-11-20T04:48:36;3.90;99.90
5176;DHT22;2607;50.934;6.934;2022-11-20T04:51:05;3.90;99.90
5176;DHT22;2607;50.934;6.934;2022-11-20T04:53:31;3.80;99.90
5176;DHT22;2607;50.934;6.934;2022-11-20T04:56:01;3.90;99.90
5176;DHT22;2607;50.934;6.934;2022-11-20T04:58:27;3.90;99.90
5176;DHT22;2607;50.934;6.934;2022-11-20T05:00:53;3.90;99.90
5176;DHT22;2607;50.934;6.934;2022-11-20T05:03:18;3.90;99.90
5176;DHT22;2607;50.934;6.934;2022-11-20T05:05:44;3.90;99.90
5176;DHT22;2607;50.934;6.934;2022-11-20T05:08:09;3.90;99.90
5176;DHT22;2607;50.934;6.934;2022-11-20T05:10:35;4.00;99.90
5176;DHT22;2607;50.934;6.934;2022-11-20T05:13:01;4.00;99.90
5176;DHT22;2607;50.934;6.934;2022-11-20T05:15:26;4.00;99.90
5176;DHT22;2607;50.934;6.934;2022-11-20T05:17:52;4.00;99.90
5176;DHT22;2607;50.934;6.934;2022-11-20T05:20:19;4.00;99.90
5176;DHT22;2607;50.934;6.934;2022-11-20T05:22:45;4.00;99.90
5176;DHT22;2607;50.934;6.934;2022-11-20T05:25:11;4.00;99.90
5176;DHT22;2607;50.934;6.934;2022-11-20T05:27:36;4.00;99.90
5176;DHT22;2607;50.934;6.934;2022-11-20T05:30:03;4.00;99.90
5176;DHT22;2607;50.934;6.934;2022-11-20T05:32:29;4.10;99.90
5176;DHT22;2607;50.934;6.934;2022-11-20T05:34:55;4.10;99.90
5176;DHT22;2607;50.934;6.934;2022-11-20T05:37:20;4.10;99.90
5176;DHT22;2607;50.934;6.934;2022-11-20T05:39:46;4.10;99.90
5176;DHT22;2607;50.934;6.934;2022-11-20T05:42:11;4.10;99.90
5176;DHT22;2607;50.934;6.934;2022-11-20T05:44:59;4.10;99.90
5176;DHT22;2607;50.934;6.934;2022-11-20T05:47:26;4.10;99.90
5176;DHT22;2607;50.934;6.934;2022-11-20T05:49:53;4.10;99.90
5176;DHT22;2607;50.934;6.934;2022-11-20T05:52:19;4.10;99.90
5176;DHT22;2607;50.934;6.934;2022-11-20T05:54:45;4.10;99.90
5176;DHT22;2607;50.934;6.934;2022-11-20T05:57:10;4.10;99.90
5176;DHT22;2607;50.934;6.934;2022-11-20T05:59:36;4.10;99.90
5176;DHT22;2607;50.934;6.934;2022-11-20T06:02:01;4.20;99.90
5176;DHT22;2607;50.934;6.934;2022-11-20T06:04:27;4.10;99.90
5176;DHT22;2607;50.934;6.934;2022-11-20T06:06:52;4.20;99.90
5176;DHT22;2607;50.934;6.934;2022-11-20T06:09:18;4.20;99.90
5176;DHT22;2607;50.934;6.934;2022-11-20T06:11:43;4.20;99.90
5176;DHT22;2607;50.934;6.934;2022-11-20T06:14:09;4.20;99.90
5176;DHT22;2607;50.934;6.934;2022-11-20T06:16:34;4.20;99.90
5176;DHT22;2607;50.934;6.934;2022-11-20T06:19:00;4.10;99.90
5176;DHT22;2607;50.934;6.934;2022-11-20T06:21:26;4.20;99.90
5176;DHT22;2607;50.934;6.934;2022-11-20T06:23:52;4.20;99.90
5176;DHT22;2607;50.934;6.934;2022-11-20T06:26:22;4.20;99.90
5176;DHT22;2607;50.934;6.934;2022-11-20T06:28:49;4.20;99.90
5176;DHT22;2607;50.934;6.934;2022-11-20T06:31:16;4.20;99.90
5176;DHT22;2607;50.934;6.934;2022-11-20T06:33:43;4.20;99.90
5176;DHT22;2607;50.934;6.934;2022-11-20T06:36:10;4.20;99.90
5176;DHT22;2607;50.934;6.934;2022-11-20T06:38:36;4.30;99.90
5176;DHT22;2607;50.934;6.934;2022-11-20T06:41:04;4.30;99.90
5176;DHT22;2607;50.934;6.934;2022-11-20T06:43:30;4.30;99.90
5176;DHT22;2607;50.934;6.934;2022-11-20T06:45:57;4.30;99.90
5176;DHT22;2607;50.934;6.934;2022-11-20T06:48:25;4.30;99.90
5176;DHT22;2607;50.934;6.934;2022-11-20T06:50:50;4.20;99.90
5176;DHT22;2607;50.934;6.934;2022-11-20T06:53:16;4.30;99.90
5176;DHT22;2607;50.934;6.934;2022-11-20T06:55:43;4.30;99.90
5176;DHT22;2607;50.934;6.934;2022-11-20T06:58:09;4.30;99.90
5176;DHT22;2607;50.934;6.934;2022-11-20T07:00:35;4.30;99.90
5176;DHT22;2607;50.934;6.934;2022-11-20T07:03:08;4.30;99.90
5176;DHT22;2607;50.934;6.934;2022-11-20T07:05:34;4.30;99.90
5176;DHT22;2607;50.934;6.934;2022-11-20T07:08:00;4.30;99.90
5176;DHT22;2607;50.934;6.934;2022-11-20T07:10:26;4.30;99.90
5176;DHT22;2607;50.934;6.934;2022-11-20T07:12:53;4.30;99.90
5176;DHT22;2607;50.934;6.934;2022-11-20T07:15:20;4.30;99.90
5176;DHT22;2607;50.934;6.934;2022-11-20T07:17:46;4.30;99.90
5176;DHT22;2607;50.934;6.934;2022-11-20T07:20:12;4.30;99.90
5176;DHT22;2607;50.934;6.934;2022-11-20T07:22:38;4.30;99.90
5176;DHT22;2607;50.934;6.934;2022-11-20T07:25:04;4.30;99.90
5176;DHT22;2607;50.934;6.934;2022-11-20T07:27:29;4.30;99.90
5176;DHT22;2607;50.934;6.934;2022-11-20T07:29:55;4.30;99.90
5176;DHT22;2607;50.934;6.934;2022-11-20T07:32:21;4.30;99.90
5176;DHT22;2607;50.934;6.934;2022-11-20T07:34:46;4.30;99.90
5176;DHT22;2607;50.934;6.934;2022-11-20T07:37:12;4.40;99.90
5176;DHT22;2607;50.934;6.934;2022-11-20T07:39:38;4.30;99.90
5176;DHT22;2607;50.934;6.934;2022-11-20T07:42:03;4.30;99.90
5176;DHT22;2607;50.934;6.934;2022-11-20T07:44:29;4.30;99.90
5176;DHT22;2607;50.934;6.934;2022-11-20T07:46:55;4.30;99.90
5176;DHT22;2607;50.934;6.934;2022-11-20T07:49:20;4.40;99.90
5176;DHT22;2607;50.934;6.934;2022-11-20T07:51:46;4.40;99.90
5176;DHT22;2607;50.934;6.934;2022-11-20T07:54:11;4.40;99.90
5176;DHT22;2607;50.934;6.934;2022-11-20T07:56:37;4.40;99.90
5176;DHT22;2607;50.934;6.934;2022-11-20T07:59:03;4.40;99.90
5176;DHT22;2607;50.934;6.934;2022-11-20T08:01:28;4.40;99.90
5176;DHT22;2607;50.934;6.934;2022-11-20T08:03:54;4.40;99.90
5176;DHT22;2607;50.934;6.934;2022-11-20T08:06:19;4.40;99.90
5176;DHT22;2607;50.934;6.934;2022-11-20T08:08:45;4.40;99.90
5176;DHT22;2607;50.934;6.934;2022-11-20T08:11:11;4.50;99.90
5176;DHT22;2607;50.934;6.934;2022-11-20T08:13:55;4.40;99.90
5176;DHT22;2607;50.934;6.934;2022-11-20T08:16:43;4.50;99.90
5176;DHT22;2607;50.934;6.934;2022-11-20T08:19:09;4.50;99.90
5176;DHT22;2607;50.934;6.934;2022-11-20T08:21:35;4.60;99.90
5176;DHT22;2607;50.934;6.934;2022-11-20T08:24:00;4.60;99.90
5176;DHT22;2607;50.934;6.934;2022-11-20T08:26:28;4.60;99.90
5176;DHT22;2607;50.934;6.934;2022-11-20T08:28:57;4.60;99.90
5176;DHT22;2607;50.934;6.934;2022-11-20T08:31:24;4.70;99.90
5176;DHT22;2607;50.934;6.934;2022-11-20T08:33:50;4.70;99.90
5176;DHT22;2607;50.934;6.934;2022-11-20T08:36:16;4.70;99.90
5176;DHT22;2607;50.934;6.934;2022-11-20T08:38:42;4.70;99.90
5176;DHT22;2607;50.934;6.934;2022-11-20T08:41:11;4.80;99.90
5176;DHT22;2607;50.934;6.934;2022-11-20T08:43:49;4.80;99.90
5176;DHT22;2607;50.934;6.934;2022-11-20T08:46:16;4.80;99.90
5176;DHT22;2607;50.934;6.934;2022-11-20T08:48:42;4.90;99.90
5176;DHT22;2607;50.934;6.934;2022-11-20T08:51:07;4.90;99.90
5176;DHT22;2607;50.934;6.934;2022-11-20T08:53:33;4.90;99.90
5176;DHT22;2607;50.934;6.934;2022-11-20T08:55:59;4.90;99.90
5176;DHT22;2607;50.934;6.934;2022-11-20T08:58:25;4.90;99.90
5176;DHT22;2607;50.934;6.934;2022-11-20T09:00:51;4.90;99.90
5176;DHT22;2607;50.934;6.934;2022-11-20T09:03:16;5.00;99.90
5176;DHT22;2607;50.934;6.934;2022-11-20T09:05:42;5.00;99.90
5176;DHT22;2607;50.934;6.934;2022-11-20T09:08:08;4.90;99.90
5176;DHT22;2607;50.934;6.934;2022-11-20T09:10:34;4.90;99.90
5176;DHT22;2607;50.934;6.934;2022-11-20T09:12:59;5.00;99.90
5176;DHT22;2607;50.934;6.934;2022-11-20T09:15:25;5.00;99.90
5176;DHT22;2607;50.934;6.934;2022-11-20T09:17:56;5.00;99.90
5176;DHT22;2607;50.934;6.934;2022-11-20T09:20:22;5.00;99.90
5176;DHT22;2607;50.934;6.934;2022-11-20T09:22:48;5.00;99.90
5176;DHT22;2607;50.934;6.934;2022-11-20T09:25:13;5.00;99.90
5176;DHT22;2607;50.934;6.934;2022-11-20T09:27:39;5.10;99.90
5176;DHT22;2607;50.934;6.934;2022-11-20T09:30:07;5.00;99.90
5176;DHT22;2607;50.934;6.934;2022-11-20T09:32:32;5.10;99.90
5176;DHT22;2607;50.934;6.934;2022-11-20T09:34:58;5.10;99.90
5176;DHT22;2607;50.934;6.934;2022-11-20T09:37:24;5.20;99.90
5176;DHT22;2607;50.934;6.934;2022-11-20T09:39:49;5.20;99.90
5176;DHT22;2607;50.934;6.934;2022-11-20T09:42:43;5.20;99.90
5176;DHT22;2607;50.934;6.934;2022-11-20T09:48:21;5.30;99.90
5176;DHT22;2607;50.934;6.934;2022-11-20T09:56:04;5.40;99.90
5176;DHT22;2607;50.934;6.934;2022-11-20T09:58:38;5.40;99.90
5176;DHT22;2607;50.934;6.934;2022-11-20T10:01:23;5.40;99.90
5176;DHT22;2607;50.934;6.934;2022-11-20T10:06:24;5.50;99.90
5176;DHT22;2607;50.934;6.934;2022-11-20T10:16:37;5.60;99.90
5176;DHT22;2607;50.934;6.934;2022-11-20T10:30:14;5.60;99.90
5176;DHT22;2607;50.934;6.934;2022-11-20T10:32:43;5.60;99.90
5176;DHT22;2607;50.934;6.934;2022-11-20T10:35:28;5.60;99.90
5176;DHT22;2607;50.934;6.934;2022-11-20T10:38:03;5.70;99.90
5176;DHT22;2607;50.934;6.934;2022-11-20T10:41:06;5.70;99.90
5176;DHT22;2607;50.934;6.934;2022-11-20T10:44:17;5.70;99.90
5176;DHT22;2607;50.934;6.934;2022-11-20T10:47:04;5.80;99.90
5176;DHT22;2607;50.934;6.934;2022-11-20T10:49:32;5.80;99.90
5176;DHT22;2607;50.934;6.934;2022-11-20T10:52:20;5.80;99.90
5176;DHT22;2607;50.934;6.934;2022-11-20T10:57:45;5.80;99.90
5176;DHT22;2607;50.934;6.934;2022-11-20T11:00:13;5.80;99.90
5176;DHT22;2607;50.934;6.934;2022-11-20T11:02:49;5.80;99.90
5176;DHT22;2607;50.934;6.934;2022-11-20T11:08:00;5.80;99.90
5176;DHT22;2607;50.934;6.934;2022-11-20T11:10:51;5.80;99.90
5176;DHT22;2607;50.934;6.934;2022-11-20T11:13:26;5.80;99.90
5176;DHT22;2607;50.934;6.934;2022-11-20T11:15:53;5.80;99.90
5176;DHT22;2607;50.934;6.934;2022-11-20T11:18:35;5.80;99.90
5176;DHT22;2607;50.934;6.934;2022-11-20T11:21:03;5.80;99.90
5176;DHT22;2607;50.934;6.934;2022-11-20T11:23:48;5.70;99.90
5176;DHT22;2607;50.934;6.934;2022-11-20T11:26:23;5.80;99.90
5176;DHT22;2607;50.934;6.934;2022-11-20T11:29:00;5.80;99.90
5176;DHT22;2607;50.934;6.934;2022-11-20T11:31:34;5.80;99.90
5176;DHT22;2607;50.934;6.934;2022-11-20T11:34:16;5.90;99.90
5176;DHT22;2607;50.934;6.934;2022-11-20T11:36:54;5.90;99.90
5176;DHT22;2607;50.934;6.934;2022-11-20T11:39:20;6.00;99.90
5176;DHT22;2607;50.934;6.934;2022-11-20T11:41:47;6.00;99.90
5176;DHT22;2607;50.934;6.934;2022-11-20T11:44:19;6.00;99.90
5176;DHT22;2607;50.934;6.934;2022-11-20T11:47:06;6.00;99.90
5176;DHT22;2607;50.934;6.934;2022-11-20T11:49:34;6.00;99.90
5176;DHT22;2607;50.934;6.934;2022-11-20T11:54:42;6.00;99.90
5176;DHT22;2607;50.934;6.934;2022-11-20T11:57:14;6.00;99.90
5176;DHT22;2607;50.934;6.934;2022-11-20T12:00:05;6.00;99.90
5176;DHT22;2607;50.934;6.934;2022-11-20T12:05:23;6.00;99.90
5176;DHT22;2607;50.934;6.934;2022-11-20T12:08:13;6.00;99.90
5176;DHT22;2607;50.934;6.934;2022-11-20T12:13:21;6.00;99.90
5176;DHT22;2607;50.934;6.934;2022-11-20T12:15:50;6.00;99.90
5176;DHT22;2607;50.934;6.934;2022-11-20T12:18:20;6.00;99.90
5176;DHT22;2607;50.934;6.934;2022-11-20T12:20:59;6.00;99.90
5176;DHT22;2607;50.934;6.934;2022-11-20T12:23:28;6.00;99.90
5176;DHT22;2607;50.934;6.934;2022-11-20T12:26:00;6.00;99.90
5176;DHT22;2607;50.934;6.934;2022-11-20T12:29:13;6.00;99.90
5176;DHT22;2607;50.934;6.934;2022-11-20T12:31:45;6.00;99.90
5176;DHT22;2607;50.934;6.934;2022-11-20T12:34:43;6.00;99.90
5176;DHT22;2607;50.934;6.934;2022-11-20T12:41:11;6.10;99.90
5176;DHT22;2607;50.934;6.934;2022-11-20T12:43:27;6.10;99.90
5176;DHT22;2607;50.934;6.934;2022-11-20T12:46:16;6.10;99.90
5176;DHT22;2607;50.934;6.934;2022-11-20T12:59:52;6.20;99.90
5176;DHT22;2607;50.934;6.934;2022-11-20T13:02:30;6.20;99.90
5176;DHT22;2607;50.934;6.934;2022-11-20T13:05:19;6.30;99.90
5176;DHT22;2607;50.934;6.934;2022-11-20T13:07:47;6.30;99.90
5176;DHT22;2607;50.934;6.934;2022-11-20T13:10:23;6.30;99.90
5176;DHT22;2607;50.934;6.934;2022-11-20T13:13:17;6.30;99.90
5176;DHT22;2607;50.934;6.934;2022-11-20T13:15:54;6.40;99.90
5176;DHT22;2607;50.934;6.934;2022-11-20T13:18:24;6.40;99.90
5176;DHT22;2607;50.934;6.934;2022-11-20T13:20:50;6.40;99.90
5176;DHT22;2607;50.934;6.934;2022-11-20T13:23:26;6.40;99.90
5176;DHT22;2607;50.934;6.934;2022-11-20T13:26:04;6.40;99.90
5176;DHT22;2607;50.934;6.934;2022-11-20T13:28:30;6.40;99.90
5176;DHT22;2607;50.934;6.934;2022-11-20T13:30:57;6.50;99.90
5176;DHT22;2607;50.934;6.934;2022-11-20T13:33:32;6.50;99.90
5176;DHT22;2607;50.934;6.934;2022-11-20T13:38:49;6.50;99.90
5176;DHT22;2607;50.934;6.934;2022-11-20T13:41:36;6.60;99.90
5176;DHT22;2607;50.934;6.934;2022-11-20T13:46:42;6.50;99.90
5176;DHT22;2607;50.934;6.934;2022-11-20T13:49:16;6.50;99.90
5176;DHT22;2607;50.934;6.934;2022-11-20T13:51:47;6.50;99.90
5176;DHT22;2607;50.934;6.934;2022-11-20T13:57:01;6.50;99.90
5176;DHT22;2607;50.934;6.934;2022-11-20T14:02:14;6.50;99.90
5176;DHT22;2607;50.934;6.934;2022-11-20T14:04:43;6.50;99.90
5176;DHT22;2607;50.934;6.934;2022-11-20T14:07:10;6.50;99.90
5176;DHT22;2607;50.934;6.934;2022-11-20T14:09:35;6.50;99.90
5176;DHT22;2607;50.934;6.934;2022-11-20T14:12:02;6.50;99.90
5176;DHT22;2607;50.934;6.934;2022-11-20T14:14:30;6.50;99.90
5176;DHT22;2607;50.934;6.934;2022-11-20T14:17:21;6.50;99.90
5176;DHT22;2607;50.934;6.934;2022-11-20T14:19:49;6.50;99.90
5176;DHT22;2607;50.934;6.934;2022-11-20T14:22:24;6.50;99.90
5176;DHT22;2607;50.934;6.934;2022-11-20T14:25:18;6.50;99.90
5176;DHT22;2607;50.934;6.934;2022-11-20T14:27:51;6.50;99.90
5176;DHT22;2607;50.934;6.934;2022-11-20T14:30:23;6.50;99.90
5176;DHT22;2607;50.934;6.934;2022-11-20T14:32:49;6.50;99.90
5176;DHT22;2607;50.934;6.934;2022-11-20T14:35:27;6.50;99.90
5176;DHT22;2607;50.934;6.934;2022-11-20T14:37:52;6.50;99.90
5176;DHT22;2607;50.934;6.934;2022-11-20T14:40:30;6.50;99.90
5176;DHT22;2607;50.934;6.934;2022-11-20T14:42:58;6.50;99.90
5176;DHT22;2607;50.934;6.934;2022-11-20T14:45:24;6.50;99.90
5176;DHT22;2607;50.934;6.934;2022-11-20T14:47:53;6.50;99.90
5176;DHT22;2607;50.934;6.934;2022-11-20T14:50:28;6.50;99.90
5176;DHT22;2607;50.934;6.934;2022-11-20T14:52:59;6.50;99.90
5176;DHT22;2607;50.934;6.934;2022-11-20T14:55:26;6.50;99.90
5176;DHT22;2607;50.934;6.934;2022-11-20T14:57:57;6.50;99.90
5176;DHT22;2607;50.934;6.934;2022-11-20T15:00:24;6.50;99.90
5176;DHT22;2607;50.934;6.934;2022-11-20T15:02:51;6.50;99.90
5176;DHT22;2607;50.934;6.934;2022-11-20T15:05:20;6.50;99.90
5176;DHT22;2607;50.934;6.934;2022-11-20T15:07:49;6.50;99.90
5176;DHT22;2607;50.934;6.934;2022-11-20T15:10:20;6.50;99.90
5176;DHT22;2607;50.934;6.934;2022-11-20T15:12:55;6.50;99.90
5176;DHT22;2607;50.934;6.934;2022-11-20T15:15:26;6.50;99.90
5176;DHT22;2607;50.934;6.934;2022-11-20T15:17:54;6.50;99.90
5176;DHT22;2607;50.934;6.934;2022-11-20T15:20:21;6.50;99.90
5176;DHT22;2607;50.934;6.934;2022-11-20T15:22:49;6.50;99.90
5176;DHT22;2607;50.934;6.934;2022-11-20T15:25:16;6.50;99.90
5176;DHT22;2607;50.934;6.934;2022-11-20T15:27:43;6.50;99.90
5176;DHT22;2607;50.934;6.934;2022-11-20T15:30:13;6.50;99.90
5176;DHT22;2607;50.934;6.934;2022-11-20T15:32:40;6.50;99.90
5176;DHT22;2607;50.934;6.934;2022-11-20T15:35:06;6.50;99.90
5176;DHT22;2607;50.934;6.934;2022-11-20T15:37:31;6.50;99.90
5176;DHT22;2607;50.934;6.934;2022-11-20T15:39:57;6.50;99.90
5176;DHT22;2607;50.934;6.934;2022-11-20T15:42:22;6.50;99.90
5176;DHT22;2607;50.934;6.934;2022-11-20T15:44:48;6.50;99.90
5176;DHT22;2607;50.934;6.934;2022-11-20T15:47:13;6.50;99.90
5176;DHT22;2607;50.934;6.934;2022-11-20T15:49:39;6.50;99.90
5176;DHT22;2607;50.934;6.934;2022-11-20T15:52:05;6.50;99.90
5176;DHT22;2607;50.934;6.934;2022-11-20T15:54:30;6.50;99.90
5176;DHT22;2607;50.934;6.934;2022-11-20T15:56:56;6.50;99.90
5176;DHT22;2607;50.934;6.934;2022-11-20T15:59:22;6.50;99.90
5176;DHT22;2607;50.934;6.934;2022-11-20T16:01:49;6.50;99.90
5176;DHT22;2607;50.934;6.934;2022-11-20T16:04:16;6.60;99.90
5176;DHT22;2607;50.934;6.934;2022-11-20T16:06:41;6.60;99.90
5176;DHT22;2607;50.934;6.934;2022-11-20T16:09:07;6.60;99.90
5176;DHT22;2607;50.934;6.934;2022-11-20T16:11:34;6.60;99.90
5176;DHT22;2607;50.934;6.934;2022-11-20T16:14:02;6.70;99.90
5176;DHT22;2607;50.934;6.934;2022-11-20T16:16:48;6.60;99.90
5176;DHT22;2607;50.934;6.934;2022-11-20T16:19:14;6.70;99.90
5176;DHT22;2607;50.934;6.934;2022-11-20T16:21:41;6.70;99.90
5176;DHT22;2607;50.934;6.934;2022-11-20T16:24:09;6.70;99.90
5176;DHT22;2607;50.934;6.934;2022-11-20T16:26:36;6.70;99.90
5176;DHT22;2607;50.934;6.934;2022-11-20T16:29:03;6.80;99.90
5176;DHT22;2607;50.934;6.934;2022-11-20T16:31:29;6.80;99.90
5176;DHT22;2607;50.934;6.934;2022-11-20T16:33:57;6.80;99.90
5176;DHT22;2607;50.934;6.934;2022-11-20T16:36:25;6.80;99.90
5176;DHT22;2607;50.934;6.934;2022-11-20T16:39:02;6.80;99.90
5176;DHT22;2607;50.934;6.934;2022-11-20T16:41:30;6.80;99.90
5176;DHT22;2607;50.934;6.934;2022-11-20T16:43:57;6.80;99.90
5176;DHT22;2607;50.934;6.934;2022-11-20T16:46:28;6.80;99.90
5176;DHT22;2607;50.934;6.934;2022-11-20T16:48:55;6.80;99.90
5176;DHT22;2607;50.934;6.934;2022-11-20T16:51:22;6.90;99.90
5176;DHT22;2607;50.934;6.934;2022-11-20T16:53:48;6.90;99.90
5176;DHT22;2607;50.934;6.934;2022-11-20T16:56:17;6.90;99.90
5176;DHT22;2607;50.934;6.934;2022-11-20T16:58:44;6.90;99.90
5176;DHT22;2607;50.934;6.934;2022-11-20T17:01:12;6.90;99.90
5176;DHT22;2607;50.934;6.934;2022-11-20T17:03:39;6.90;99.90
5176;DHT22;2607;50.934;6.934;2022-11-20T17:08:41;6.90;99.90
5176;DHT22;2607;50.934;6.934;2022-11-20T17:11:07;6.90;99.90
5176;DHT22;2607;50.934;6.934;2022-11-20T17:13:34;6.90;99.90
5176;DHT22;2607;50.934;6.934;2022-11-20T17:16:01;6.90;99.90
5176;DHT22;2607;50.934;6.934;2022-11-20T17:18:27;6.90;99.90
5176;DHT22;2607;50.934;6.934;2022-11-20T17:20:53;6.90;99.90
5176;DHT22;2607;50.934;6.934;2022-11-20T17:23:18;6.90;99.90
5176;DHT22;2607;50.934;6.934;2022-11-20T17:25:44;6.90;99.90
5176;DHT22;2607;50.934;6.934;2022-11-20T17:28:09;6.90;99.90
5176;DHT22;2607;50.934;6.934;2022-11-20T17:30:35;6.90;99.90
5176;DHT22;2607;50.934;6.934;2022-11-20T17:33:00;6.90;99.90
5176;DHT22;2607;50.934;6.934;2022-11-20T17:35:26;6.90;99.90
5176;DHT22;2607;50.934;6.934;2022-11-20T17:37:52;6.90;99.90
5176;DHT22;2607;50.934;6.934;2022-11-20T17:40:17;6.90;99.90
5176;DHT22;2607;50.934;6.934;2022-11-20T17:42:43;6.90;99.90